Time;durP1;ratioP1;P1;durP2;ratioP2;P2;SDS_P1;SDS_P2;PMS_P1;PMS_P2;Temp;Humidity;BMP_temperature;BMP_pressure;BME280_temperature;BME280_humidity;BME280_pressure;Samples;Min_cycle;Max_cycle;Signal;HPM_P1;HPM_P2
2022/07/16 00:02:58;;;;;;;5.82;1.55;;;19.50;57.10;;;;;;9178904;19;20010;-66
2022/07/16 00:06:03;;;;;;;2.65;1.90;;;19.50;57.20;;;;;;9173174;19;20015;-66
2022/07/16 00:09:11;;;;;;;6.10;1.80;;;19.50;57.10;;;;;;9181318;19;20019;-66
2022/07/16 00:12:16;;;;;;;6.88;1.90;;;19.40;57.20;;;;;;9179197;19;20029;-65
2022/07/16 00:15:21;;;;;;;3.92;1.50;;;19.40;57.20;;;;;;9181749;19;20018;-67
2022/07/16 00:21:43;;;;;;;2.42;1.40;;;19.30;57.10;;;;;;9180308;19;20074;-66
2022/07/16 00:24:51;;;;;;;3.90;1.67;;;19.30;57.20;;;;;;9179539;19;20352;-65
2022/07/16 00:27:56;;;;;;;9.68;2.42;;;19.30;57.30;;;;;;9176825;19;20078;-65
2022/07/16 00:31:01;;;;;;;2.53;1.30;;;19.30;57.30;;;;;;9178229;19;20019;-67
2022/07/16 00:34:08;;;;;;;4.75;1.42;;;19.30;57.30;;;;;;9178770;19;20014;-66
2022/07/16 00:37:13;;;;;;;2.80;1.20;;;19.30;57.40;;;;;;9178662;19;20471;-65
2022/07/16 00:40:21;;;;;;;4.05;1.30;;;19.20;57.30;;;;;;9180227;19;20010;-66
2022/07/16 00:43:26;;;;;;;3.35;1.40;;;19.20;57.40;;;;;;9179704;19;20010;-66
2022/07/16 00:46:31;;;;;;;3.63;1.42;;;19.20;57.30;;;;;;9179856;19;20017;-65
2022/07/16 00:49:36;;;;;;;5.78;1.60;;;19.20;57.40;;;;;;9180153;19;20471;-65
2022/07/16 00:52:41;;;;;;;1.98;1.25;;;19.10;57.40;;;;;;9179352;19;20021;-66
2022/07/16 00:55:48;;;;;;;4.15;1.58;;;19.10;57.40;;;;;;9178507;19;20352;-65
2022/07/16 00:58:55;;;;;;;7.13;1.35;;;19.10;57.50;;;;;;9179142;19;20022;-65
2022/07/16 01:02:00;;;;;;;4.85;1.30;;;19.10;57.50;;;;;;9179414;19;20438;-66
2022/07/16 01:05:06;;;;;;;2.45;1.30;;;19.10;57.50;;;;;;9173724;19;20018;-65
2022/07/16 01:08:11;;;;;;;4.82;1.20;;;19.00;57.40;;;;;;9178823;19;20479;-66
2022/07/16 01:11:22;;;;;;;3.33;1.88;;;19.00;57.50;;;;;;9178091;19;20014;-67
2022/07/16 01:14:27;;;;;;;3.70;1.15;;;19.00;57.50;;;;;;9177762;19;20033;-66
2022/07/16 01:17:33;;;;;;;3.63;1.33;;;19.00;57.50;;;;;;9178854;19;20512;-65
2022/07/16 01:20:38;;;;;;;3.60;1.15;;;19.00;57.60;;;;;;9179005;19;20015;-65
2022/07/16 01:23:49;;;;;;;3.63;1.50;;;19.00;57.50;;;;;;9175807;19;20021;-65
2022/07/16 01:26:54;;;;;;;7.60;1.65;;;18.90;57.50;;;;;;9177567;19;20006;-65
2022/07/16 01:29:59;;;;;;;3.83;1.30;;;18.90;57.50;;;;;;9177398;19;20487;-65
2022/07/16 01:33:20;;;;;;;3.90;1.10;;;18.90;57.50;;;;;;9178564;19;20011;-64
2022/07/16 01:36:25;;;;;;;3.55;1.50;;;18.90;57.60;;;;;;9176455;19;20014;-66
2022/07/16 01:39:35;;;;;;;3.60;1.50;;;18.90;57.50;;;;;;9179202;19;20245;-66
2022/07/16 01:42:40;;;;;;;2.10;1.17;;;18.90;57.50;;;;;;9177325;19;20014;-67
2022/07/16 01:45:45;;;;;;;4.85;1.40;;;18.90;57.60;;;;;;9174167;19;20028;-65
2022/07/16 01:48:50;;;;;;;4.55;1.20;;;18.90;57.60;;;;;;9176898;19;20571;-65
2022/07/16 01:51:55;;;;;;;6.65;1.63;;;18.90;57.60;;;;;;9177723;19;20117;-65
2022/07/16 01:55:09;;;;;;;3.78;1.35;;;18.90;57.60;;;;;;9176062;19;20021;-66
2022/07/16 01:58:16;;;;;;;4.78;1.40;;;18.80;57.60;;;;;;9177812;19;20074;-65
2022/07/16 02:01:21;;;;;;;6.22;1.52;;;18.80;57.60;;;;;;9177531;19;20015;-66
2022/07/16 02:04:26;;;;;;;5.65;1.52;;;18.80;57.60;;;;;;9169634;19;20029;-65
2022/07/16 02:07:31;;;;;;;2.30;1.10;;;18.80;57.70;;;;;;9183983;19;20052;-66
2022/07/16 02:10:39;;;;;;;8.13;1.30;;;18.80;57.70;;;;;;9186444;19;20015;-65
2022/07/16 02:13:45;;;;;;;4.90;1.60;;;18.80;57.70;;;;;;9186237;19;20022;-66
2022/07/16 02:16:50;;;;;;;5.60;1.63;;;18.80;57.70;;;;;;9184622;19;20026;-65
2022/07/16 02:19:56;;;;;;;9.15;2.10;;;18.80;57.80;;;;;;9181432;19;20024;-65
2022/07/16 02:23:01;;;;;;;4.70;1.40;;;18.80;57.80;;;;;;9186326;19;20022;-65
2022/07/16 02:26:09;;;;;;;6.05;2.15;;;18.70;57.80;;;;;;9182360;19;20011;-67
2022/07/16 02:29:14;;;;;;;3.25;1.50;;;18.70;57.80;;;;;;9183932;19;20014;-65
2022/07/16 02:32:19;;;;;;;3.08;2.00;;;18.70;57.80;;;;;;9183736;19;20026;-65
2022/07/16 02:35:24;;;;;;;3.72;1.10;;;18.70;57.90;;;;;;9185538;19;20022;-65
2022/07/16 02:38:29;;;;;;;5.80;1.60;;;18.70;58.00;;;;;;9183862;19;20014;-66
2022/07/16 02:41:37;;;;;;;7.90;1.50;;;18.70;58.10;;;;;;9185521;19;20074;-65
2022/07/16 02:44:42;;;;;;;5.05;1.63;;;18.60;58.10;;;;;;9182965;19;20014;-66
2022/07/16 02:47:47;;;;;;;3.80;1.65;;;18.60;58.10;;;;;;9184181;19;20341;-64
2022/07/16 02:50:52;;;;;;;4.47;1.77;;;18.60;58.10;;;;;;9184128;19;20483;-65
2022/07/16 02:53:57;;;;;;;4.70;1.88;;;18.60;58.30;;;;;;9184646;19;20010;-66
2022/07/16 02:57:05;;;;;;;4.13;1.98;;;18.60;58.40;;;;;;9184898;19;20496;-65
2022/07/16 03:00:13;;;;;;;8.07;1.80;;;18.60;58.80;;;;;;9185036;19;20019;-64
2022/07/16 03:03:18;;;;;;;4.10;1.90;;;18.60;59.10;;;;;;9184470;19;20414;-65
2022/07/16 03:06:23;;;;;;;5.68;2.45;;;18.60;59.90;;;;;;9176856;19;20025;-65
2022/07/16 03:09:28;;;;;;;16.75;2.35;;;18.60;59.60;;;;;;9176393;19;20387;-66
2022/07/16 03:12:36;;;;;;;3.17;1.95;;;18.60;59.80;;;;;;9183526;19;20017;-65
2022/07/16 03:15:41;;;;;;;3.00;1.83;;;18.50;60.20;;;;;;9180209;19;20078;-65
2022/07/16 03:18:46;;;;;;;3.22;2.03;;;18.60;60.30;;;;;;9183552;19;20344;-66
2022/07/16 03:21:51;;;;;;;7.88;2.30;;;18.50;60.50;;;;;;9181824;19;20340;-66
2022/07/16 03:24:56;;;;;;;5.60;2.10;;;18.50;60.70;;;;;;9181912;19;20349;-65
2022/07/16 03:28:04;;;;;;;5.07;2.10;;;18.50;61.00;;;;;;9182914;19;20006;-65
2022/07/16 03:31:09;;;;;;;3.30;2.17;;;18.50;61.30;;;;;;9183028;19;20018;-66
2022/07/16 03:34:14;;;;;;;6.38;2.42;;;18.50;61.40;;;;;;9183119;19;20094;-66
2022/07/16 03:37:19;;;;;;;5.25;2.38;;;18.50;61.60;;;;;;9183641;19;20022;-67
2022/07/16 03:40:25;;;;;;;3.90;2.25;;;18.40;61.70;;;;;;9181904;19;20459;-65
2022/07/16 03:43:33;;;;;;;4.55;2.35;;;18.40;62.00;;;;;;9183741;19;20018;-66
2022/07/16 03:46:38;;;;;;;5.00;2.50;;;18.40;62.30;;;;;;9179586;19;20010;-65
2022/07/16 03:49:43;;;;;;;6.65;2.92;;;18.40;62.40;;;;;;9180777;19;20015;-66
2022/07/16 03:52:48;;;;;;;3.92;2.60;;;18.40;62.50;;;;;;9182619;19;20022;-65
2022/07/16 03:55:53;;;;;;;9.23;2.90;;;18.30;62.70;;;;;;9181520;19;20014;-65
2022/07/16 03:59:01;;;;;;;5.25;2.45;;;18.30;62.80;;;;;;9182675;19;20006;-65
2022/07/16 04:02:06;;;;;;;5.22;2.65;;;18.30;63.10;;;;;;9180803;19;20018;-66
2022/07/16 04:05:12;;;;;;;5.85;3.65;;;18.30;63.20;;;;;;9175250;19;20030;-65
2022/07/16 04:08:17;;;;;;;8.38;2.60;;;18.30;63.30;;;;;;9181445;19;20476;-66
2022/07/16 04:11:23;;;;;;;5.50;2.65;;;18.30;63.50;;;;;;9179700;19;20011;-66
2022/07/16 04:14:31;;;;;;;12.40;2.30;;;18.30;63.60;;;;;;9181242;19;20023;-66
2022/07/16 04:17:36;;;;;;;6.57;2.47;;;18.30;63.90;;;;;;9180670;19;20015;-66
2022/07/16 04:20:42;;;;;;;4.95;2.30;;;18.20;63.90;;;;;;9181829;19;20450;-65
2022/07/16 04:23:47;;;;;;;2.83;2.17;;;18.20;64.00;;;;;;9179688;19;20010;-66
2022/07/16 04:26:52;;;;;;;5.47;1.90;;;18.20;64.20;;;;;;9179348;19;20925;-66
2022/07/16 04:29:59;;;;;;;2.47;1.75;;;18.20;64.20;;;;;;9178503;19;20026;-65
2022/07/16 04:33:05;;;;;;;7.18;2.45;;;18.20;64.50;;;;;;9180326;19;20018;-65
2022/07/16 04:36:11;;;;;;;4.75;1.98;;;18.20;64.60;;;;;;9180066;19;20010;-65
2022/07/16 04:39:16;;;;;;;4.70;2.15;;;18.20;64.60;;;;;;9179822;19;20034;-65
2022/07/16 04:42:21;;;;;;;4.35;2.53;;;18.20;64.80;;;;;;9180362;19;20025;-67
2022/07/16 04:45:29;;;;;;;6.43;2.28;;;18.20;64.90;;;;;;9178845;19;20361;-67
2022/07/16 04:48:34;;;;;;;3.92;2.00;;;18.20;65.10;;;;;;9174965;19;20022;-67
2022/07/16 04:51:39;;;;;;;5.65;2.17;;;18.20;65.10;;;;;;9177591;19;20014;-67
2022/07/16 04:54:44;;;;;;;6.88;2.30;;;18.20;65.20;;;;;;9179561;19;20025;-69
2022/07/16 04:57:49;;;;;;;4.72;2.20;;;18.20;65.30;;;;;;9174583;19;20022;-65
2022/07/16 05:01:04;;;;;;;4.10;2.00;;;18.20;65.50;;;;;;9174723;19;20443;-67
2022/07/16 05:04:09;;;;;;;6.53;1.80;;;18.20;65.60;;;;;;9167100;19;20029;-70
2022/07/16 05:07:14;;;;;;;4.50;1.80;;;18.20;65.50;;;;;;9170782;19;20090;-65
2022/07/16 05:10:20;;;;;;;5.78;1.92;;;18.20;65.60;;;;;;9170436;19;20021;-65
2022/07/16 05:13:25;;;;;;;6.28;1.83;;;18.20;65.70;;;;;;9165783;19;20026;-65
2022/07/16 05:16:33;;;;;;;5.60;1.83;;;18.20;65.70;;;;;;9174410;19;20483;-64
2022/07/16 05:19:39;;;;;;;6.05;1.63;;;18.20;65.90;;;;;;9178121;19;20344;-65
2022/07/16 05:22:44;;;;;;;1.80;1.30;;;18.20;65.80;;;;;;9178132;19;20011;-64
2022/07/16 05:25:49;;;;;;;6.22;1.52;;;18.20;65.90;;;;;;9177076;19;20014;-64
2022/07/16 05:28:54;;;;;;;5.75;1.80;;;18.20;65.90;;;;;;9175984;19;20014;-65
2022/07/16 05:32:02;;;;;;;7.15;2.50;;;18.20;66.00;;;;;;9172790;19;20022;-64
2022/07/16 05:35:08;;;;;;;6.28;1.80;;;18.20;66.20;;;;;;9174780;19;20048;-66
2022/07/16 05:38:13;;;;;;;5.78;1.58;;;18.20;66.20;;;;;;9174877;19;20025;-65
2022/07/16 05:41:18;;;;;;;9.32;1.77;;;18.20;66.20;;;;;;9176501;19;20025;-66
2022/07/16 05:44:23;;;;;;;4.05;1.30;;;18.20;66.30;;;;;;9187245;19;20017;-65
2022/07/16 05:47:32;;;;;;;6.00;1.58;;;18.20;66.30;;;;;;9185079;19;20024;-66
2022/07/16 05:50:37;;;;;;;6.15;1.60;;;18.30;66.60;;;;;;9185610;19;20022;-67
2022/07/16 05:53:42;;;;;;;8.70;1.52;;;18.20;66.40;;;;;;9187691;19;20019;-65
2022/07/16 05:56:47;;;;;;;8.15;1.90;;;18.30;66.50;;;;;;9185958;19;20021;-65
2022/07/16 05:59:52;;;;;;;11.93;1.73;;;18.40;66.60;;;;;;9187300;19;20023;-64
2022/07/16 06:03:00;;;;;;;6.28;1.60;;;18.40;66.50;;;;;;9186633;19;20018;-65
2022/07/16 06:06:06;;;;;;;6.45;1.45;;;18.50;66.60;;;;;;9178851;19;20021;-66
2022/07/16 06:09:12;;;;;;;7.22;1.60;;;18.50;66.50;;;;;;9185096;19;20014;-64
2022/07/16 06:12:17;;;;;;;6.30;1.38;;;18.50;66.40;;;;;;9186739;19;20052;-65
2022/07/16 06:15:22;;;;;;;5.22;2.03;;;18.60;66.20;;;;;;9185192;19;20508;-65
2022/07/16 06:18:30;;;;;;;6.93;1.30;;;18.70;66.20;;;;;;9184482;19;20015;-65
2022/07/16 06:21:35;;;;;;;6.68;1.50;;;18.80;66.00;;;;;;9185633;19;20022;-67
2022/07/16 06:24:40;;;;;;;6.00;1.30;;;18.90;65.80;;;;;;9186821;19;20018;-65
2022/07/16 06:27:46;;;;;;;7.13;1.30;;;19.00;65.60;;;;;;9182750;19;20487;-66
2022/07/16 06:30:52;;;;;;;6.38;1.40;;;19.00;65.30;;;;;;9184379;19;20022;-66
2022/07/16 06:33:59;;;;;;;7.85;1.40;;;19.10;65.20;;;;;;9186195;19;20033;-65
2022/07/16 06:37:04;;;;;;;7.45;1.55;;;19.10;65.00;;;;;;9184491;19;20014;-65
2022/07/16 06:40:10;;;;;;;8.05;1.58;;;19.20;64.80;;;;;;9185743;19;20010;-65
2022/07/16 06:43:16;;;;;;;7.40;1.55;;;19.20;64.50;;;;;;9185351;19;20834;-66
2022/07/16 06:46:21;;;;;;;8.02;1.42;;;19.20;64.30;;;;;;9183301;19;20085;-66
2022/07/16 06:49:29;;;;;;;8.48;1.30;;;19.20;64.30;;;;;;9184744;19;20006;-64
2022/07/16 06:52:34;;;;;;;5.72;1.13;;;19.20;64.20;;;;;;9184106;19;20010;-66
2022/07/16 06:55:39;;;;;;;4.28;1.80;;;19.20;64.10;;;;;;9185385;19;20019;-66
2022/07/16 06:58:44;;;;;;;4.13;1.23;;;19.20;64.00;;;;;;9183656;19;20492;-66
2022/07/16 07:01:49;;;;;;;8.88;1.52;;;19.30;64.10;;;;;;9181280;19;20040;-64
2022/07/16 07:04:56;;;;;;;4.72;1.45;;;19.30;64.70;;;;;;9179369;19;20019;-66
2022/07/16 07:08:02;;;;;;;9.73;1.83;;;19.50;64.00;;;;;;9180449;19;20021;-67
2022/07/16 07:11:07;;;;;;;7.15;1.45;;;19.60;63.90;;;;;;9182455;19;20040;-63
2022/07/16 07:14:12;;;;;;;10.00;1.67;;;19.70;63.70;;;;;;9184471;19;20006;-66
2022/07/16 07:17:17;;;;;;;8.45;1.45;;;19.80;63.30;;;;;;9182535;19;20029;-65
2022/07/16 07:20:25;;;;;;;6.28;1.20;;;19.90;63.10;;;;;;9182170;19;20701;-67
2022/07/16 07:23:30;;;;;;;9.13;1.52;;;20.00;62.80;;;;;;9183670;19;20019;-65
2022/07/16 07:26:36;;;;;;;8.45;1.67;;;20.00;62.60;;;;;;9181256;19;20007;-65
2022/07/16 07:29:41;;;;;;;9.77;1.98;;;20.00;62.30;;;;;;9180608;19;20024;-66
2022/07/16 07:32:46;;;;;;;6.65;1.95;;;20.00;62.20;;;;;;9179244;19;20480;-64
2022/07/16 07:35:54;;;;;;;4.88;1.27;;;20.00;62.10;;;;;;9180681;19;20044;-66
2022/07/16 07:38:59;;;;;;;8.93;1.30;;;20.00;61.90;;;;;;9184032;19;20018;-67
2022/07/16 07:42:04;;;;;;;4.43;0.88;;;20.00;61.90;;;;;;9178641;19;20018;-66
2022/07/16 07:45:11;;;;;;;3.78;1.25;;;20.00;61.80;;;;;;9181206;19;20022;-67
2022/07/16 07:48:16;;;;;;;15.07;1.83;;;20.00;61.70;;;;;;9179646;19;20014;-65
2022/07/16 07:51:24;;;;;;;5.50;1.17;;;20.00;61.50;;;;;;9181562;19;20015;-65
2022/07/16 07:54:29;;;;;;;5.38;1.20;;;20.00;61.30;;;;;;9183164;19;20074;-65
2022/07/16 07:57:34;;;;;;;6.50;1.58;;;19.90;61.30;;;;;;9179390;19;20022;-67
2022/07/16 08:00:40;;;;;;;6.78;1.65;;;19.90;61.10;;;;;;9181825;19;20015;-67
2022/07/16 08:03:46;;;;;;;13.20;1.67;;;19.90;61.00;;;;;;9174375;19;20362;-67
2022/07/16 08:06:54;;;;;;;4.05;1.08;;;19.80;60.90;;;;;;9180852;19;20411;-68
2022/07/16 08:09:59;;;;;;;8.07;1.45;;;19.80;60.80;;;;;;9182160;19;20025;-69
2022/07/16 08:13:04;;;;;;;9.25;1.63;;;19.80;60.80;;;;;;9180562;19;20035;-69
2022/07/16 08:16:10;;;;;;;12.95;1.40;;;19.90;60.80;;;;;;9179590;19;20021;-68
2022/07/16 08:19:15;;;;;;;10.38;1.48;;;20.00;60.60;;;;;;9178627;19;20511;-69
2022/07/16 08:22:23;;;;;;;9.20;1.35;;;20.10;60.40;;;;;;9179880;19;20019;-69
2022/07/16 08:28:45;;;;;;;3.45;0.82;;;20.40;60.10;;;;;;9178980;19;20022;-68
2022/07/16 08:31:50;;;;;;;6.95;1.38;;;20.50;59.90;;;;;;9178815;19;20037;-70
2022/07/16 08:34:56;;;;;;;7.47;1.35;;;20.70;59.70;;;;;;9180893;19;20007;-69
2022/07/16 08:38:04;;;;;;;11.30;1.58;;;20.70;59.50;;;;;;9180452;19;20051;-68
2022/07/16 08:41:10;;;;;;;5.63;1.38;;;20.80;59.40;;;;;;9178805;19;20018;-69
2022/07/16 08:44:16;;;;;;;5.93;0.82;;;20.90;59.50;;;;;;9178909;19;20021;-71
2022/07/16 08:47:22;;;;;;;6.30;1.10;;;21.00;59.30;;;;;;9178860;19;20078;-70
2022/07/16 08:50:29;;;;;;;12.32;1.17;;;21.10;59.30;;;;;;9180206;19;20471;-69
2022/07/16 08:53:39;;;;;;;3.25;0.95;;;21.20;59.10;;;;;;9177661;19;20019;-68
2022/07/16 08:56:46;;;;;;;5.60;1.20;;;21.30;59.00;;;;;;9178676;19;20073;-68
2022/07/16 08:59:51;;;;;;;2.85;1.15;;;21.40;58.90;;;;;;9178491;19;20018;-68
2022/07/16 09:02:57;;;;;;;3.30;1.00;;;21.40;58.70;;;;;;9179855;19;20081;-68
2022/07/16 09:06:02;;;;;;;3.90;0.85;;;21.40;58.50;;;;;;9174122;19;20011;-67
2022/07/16 09:09:13;;;;;;;7.43;1.33;;;21.40;58.30;;;;;;9177525;19;20363;-69
2022/07/16 09:12:35;;;;;;;5.35;1.00;;;21.40;58.10;;;;;;9179238;19;20021;-68
2022/07/16 09:15:42;;;;;;;10.27;1.65;;;21.40;57.90;;;;;;9185033;19;20337;-70
2022/07/16 09:18:47;;;;;;;4.32;1.10;;;21.40;58.10;;;;;;9187818;19;20026;-67
2022/07/16 09:22:17;;;;;;;10.80;1.05;;;21.50;58.10;;;;;;9186978;19;20017;-69
2022/07/16 09:25:25;;;;;;;4.38;0.90;;;21.50;57.60;;;;;;9187510;19;20017;-68
2022/07/16 09:28:43;;;;;;;6.82;1.20;;;21.60;57.50;;;;;;9186250;19;20011;-69
2022/07/16 09:31:48;;;;;;;3.80;0.80;;;21.80;57.00;;;;;;9186666;19;20037;-68
2022/07/16 09:35:03;;;;;;;5.93;1.10;;;21.90;57.00;;;;;;9188674;19;20014;-69
2022/07/16 09:38:09;;;;;;;6.50;1.17;;;22.10;56.50;;;;;;9184505;19;20071;-69
2022/07/16 09:41:46;;;;;;;7.43;1.00;;;22.20;56.50;;;;;;9184333;19;20018;-68
2022/07/16 09:44:52;;;;;;;6.13;0.90;;;22.30;55.90;;;;;;9184608;19;20014;-68
2022/07/16 09:47:57;;;;;;;4.43;1.02;;;22.40;55.80;;;;;;9182276;19;20042;-67
2022/07/16 09:51:16;;;;;;;7.80;1.40;;;22.40;55.60;;;;;;9184193;19;20011;-68
2022/07/16 09:54:28;;;;;;;3.13;1.00;;;22.40;55.10;;;;;;9185397;19;20010;-69
2022/07/16 09:57:37;;;;;;;3.92;0.82;;;22.40;54.90;;;;;;9184437;19;20380;-69
2022/07/16 10:00:42;;;;;;;4.63;1.08;;;22.40;55.00;;;;;;9185320;19;20090;-70
2022/07/16 10:03:49;;;;;;;6.05;0.70;;;22.50;55.00;;;;;;9181620;19;20015;-69
2022/07/16 10:06:55;;;;;;;4.35;1.13;;;22.60;54.90;;;;;;9185320;19;20018;-68
2022/07/16 10:10:00;;;;;;;8.00;0.75;;;22.70;54.70;;;;;;9180651;19;20014;-67
2022/07/16 10:13:09;;;;;;;7.43;1.25;;;22.70;54.50;;;;;;9183246;19;20042;-69
2022/07/16 10:16:15;;;;;;;2.22;0.95;;;22.80;54.20;;;;;;9185941;19;20044;-68
2022/07/16 10:19:25;;;;;;;8.07;1.02;;;22.80;54.20;;;;;;9184547;19;20435;-68
2022/07/16 10:22:32;;;;;;;4.55;0.63;;;22.80;54.00;;;;;;9184106;19;20596;-69
2022/07/16 10:25:38;;;;;;;10.90;0.88;;;22.90;53.90;;;;;;9183505;19;20635;-68
2022/07/16 10:28:48;;;;;;;9.57;1.13;;;22.90;53.90;;;;;;9181242;19;20597;-68
2022/07/16 10:35:31;;;;;;;3.17;0.45;;;23.00;53.50;;;;;;9185077;19;20017;-67
2022/07/16 10:38:36;;;;;;;7.03;0.82;;;23.10;53.50;;;;;;9183733;19;20014;-69
2022/07/16 10:41:50;;;;;;;6.15;0.90;;;23.20;53.50;;;;;;9182892;19;20018;-68
2022/07/16 10:44:58;;;;;;;;;;;23.30;52.90;;;;;;9183917;19;20025;-68
2022/07/16 10:48:04;;;;;;;2.75;0.80;;;23.40;53.50;;;;;;9182431;19;20362;-68
2022/07/16 10:51:17;;;;;;;4.57;0.90;;;23.50;53.20;;;;;;9181251;19;20021;-69
2022/07/16 10:54:22;;;;;;;4.35;0.80;;;23.60;52.60;;;;;;9181840;19;20443;-68
2022/07/16 10:57:35;;;;;;;5.80;1.02;;;23.60;53.20;;;;;;9182134;19;20078;-68
2022/07/16 11:00:43;;;;;;;5.55;1.00;;;23.60;52.20;;;;;;9181538;19;20050;-67
2022/07/16 11:03:53;;;;;;;8.43;1.60;;;23.70;52.40;;;;;;9177543;19;20574;-69
2022/07/16 11:07:00;;;;;;;4.22;0.93;;;23.80;52.20;;;;;;9181300;19;20033;-68
2022/07/16 11:10:06;;;;;;;2.05;0.50;;;23.90;52.20;;;;;;9178943;19;20018;-68
2022/07/16 11:13:17;;;;;;;2.95;0.82;;;24.00;52.00;;;;;;9181743;19;20011;-69
2022/07/16 11:16:25;;;;;;;7.65;0.90;;;24.10;51.50;;;;;;9180371;19;20026;-69
2022/07/16 11:19:31;;;;;;;3.58;0.63;;;24.20;51.30;;;;;;9182798;19;20023;-68
2022/07/16 11:22:36;;;;;;;4.32;1.23;;;24.20;51.20;;;;;;9182464;19;20018;-68
2022/07/16 11:26:01;;;;;;;6.47;1.30;;;24.30;51.20;;;;;;9183221;19;20011;-69
2022/07/16 11:29:07;;;;;;;3.15;0.68;;;24.50;50.70;;;;;;9181568;19;20007;-69
2022/07/16 11:32:18;;;;;;;3.22;0.90;;;24.60;50.80;;;;;;9181000;19;20011;-68
2022/07/16 11:35:23;;;;;;;3.45;0.75;;;24.70;50.40;;;;;;9183428;19;20094;-68
2022/07/16 11:38:28;;;;;;;3.53;0.80;;;24.80;50.40;;;;;;9177445;19;20029;-68
2022/07/16 11:41:34;;;;;;;10.13;0.98;;;24.90;50.20;;;;;;9179342;19;20018;-67
2022/07/16 11:44:41;;;;;;;1.80;0.70;;;25.00;49.80;;;;;;9182912;19;20018;-68
2022/07/16 11:47:49;;;;;;;7.82;0.90;;;25.00;49.60;;;;;;9182128;19;20014;-67
2022/07/16 11:50:55;;;;;;;7.85;0.80;;;25.00;49.40;;;;;;9180265;19;20103;-71
2022/07/16 11:54:00;;;;;;;2.45;0.57;;;25.10;49.40;;;;;;9179536;19;20022;-68
2022/07/16 11:57:06;;;;;;;2.50;1.13;;;25.10;49.40;;;;;;9178617;19;20020;-70
2022/07/16 12:00:12;;;;;;;4.95;0.88;;;25.20;49.30;;;;;;9179356;19;20019;-68
2022/07/16 12:03:20;;;;;;;1.65;0.80;;;25.20;49.20;;;;;;9179231;19;20069;-68
2022/07/16 12:06:27;;;;;;;5.40;1.42;;;25.30;48.90;;;;;;9175822;19;20014;-68
2022/07/16 12:09:34;;;;;;;1.85;0.77;;;25.40;49.00;;;;;;9177193;19;20011;-67
2022/07/16 12:12:39;;;;;;;5.25;1.02;;;25.40;48.80;;;;;;9178041;19;20356;-67
2022/07/16 12:15:54;;;;;;;5.40;1.48;;;25.40;48.60;;;;;;9180218;19;20018;-68
2022/07/16 12:19:14;;;;;;;4.13;0.80;;;25.50;48.40;;;;;;9179753;19;20503;-68
2022/07/16 12:22:19;;;;;;;6.03;1.10;;;25.50;48.30;;;;;;9179428;19;20014;-68
2022/07/16 12:25:31;;;;;;;5.57;0.85;;;25.50;48.50;;;;;;9178459;19;20035;-68
2022/07/16 12:28:36;;;;;;;4.22;0.82;;;25.50;48.20;;;;;;9178688;19;20022;-67
2022/07/16 12:31:41;;;;;;;4.15;1.02;;;25.50;48.20;;;;;;9180392;19;20025;-67
2022/07/16 12:34:50;;;;;;;5.78;1.00;;;25.60;48.10;;;;;;9180861;19;20021;-68
2022/07/16 12:37:55;;;;;;;5.90;0.80;;;25.60;47.70;;;;;;9177398;19;20022;-68
2022/07/16 12:41:00;;;;;;;39.22;3.65;;;25.50;47.70;;;;;;9179751;19;20475;-68
2022/07/16 12:44:08;;;;;;;4.53;0.50;;;25.60;47.60;;;;;;9179557;19;20029;-69
2022/07/16 12:47:13;;;;;;;7.53;1.13;;;25.60;47.60;;;;;;9180234;19;20026;-68
2022/07/16 12:50:22;;;;;;;12.23;2.58;;;25.60;47.60;;;;;;9176792;19;20014;-67
2022/07/16 12:53:27;;;;;;;5.60;1.15;;;25.70;47.60;;;;;;9179182;19;20026;-68
2022/07/16 12:59:51;;;;;;;8.38;1.35;;;25.80;47.40;;;;;;9179081;19;20022;-67
2022/07/16 13:02:58;;;;;;;6.50;1.02;;;25.80;47.30;;;;;;9176034;19;20048;-69
2022/07/16 13:06:06;;;;;;;8.23;0.88;;;25.90;47.30;;;;;;9173477;19;20056;-68
2022/07/16 13:09:12;;;;;;;6.38;1.10;;;26.00;47.20;;;;;;9178848;19;20014;-68
2022/07/16 13:12:17;;;;;;;4.63;1.17;;;26.00;47.20;;;;;;9178230;19;20018;-68
2022/07/16 13:15:22;;;;;;;4.25;1.38;;;26.00;47.10;;;;;;9178358;19;20018;-68
2022/07/16 13:18:27;;;;;;;8.20;0.98;;;26.00;46.90;;;;;;9179197;19;20575;-68
2022/07/16 13:21:36;;;;;;;5.03;1.15;;;26.00;46.80;;;;;;9178260;19;20046;-68
2022/07/16 13:24:41;;;;;;;3.40;1.13;;;26.00;46.60;;;;;;9179748;19;20377;-68
2022/07/16 13:27:47;;;;;;;7.43;1.40;;;26.00;46.70;;;;;;9178841;19;20026;-68
2022/07/16 13:30:53;;;;;;;5.57;0.85;;;25.90;46.60;;;;;;9177280;19;20024;-70
2022/07/16 13:33:58;;;;;;;5.57;0.98;;;25.90;46.50;;;;;;9176526;19;20018;-68
2022/07/16 13:37:06;;;;;;;3.10;1.17;;;25.90;46.50;;;;;;9177065;19;20015;-68
2022/07/16 13:40:13;;;;;;;2.70;0.90;;;25.80;46.40;;;;;;9179081;19;20014;-68
2022/07/16 13:43:19;;;;;;;9.52;1.10;;;25.80;46.50;;;;;;9177116;19;20015;-68
2022/07/16 13:46:24;;;;;;;3.55;0.90;;;25.80;46.50;;;;;;9177228;19;20056;-69
2022/07/16 13:49:29;;;;;;;2.20;0.93;;;25.80;46.50;;;;;;9176302;19;20018;-68
2022/07/16 13:52:37;;;;;;;3.90;0.90;;;25.80;46.50;;;;;;9178176;19;20018;-68
2022/07/16 13:55:42;;;;;;;7.35;1.10;;;25.90;46.30;;;;;;9178718;19;20019;-68
2022/07/16 13:58:47;;;;;;;5.32;0.63;;;25.90;46.30;;;;;;9178973;19;20509;-68
2022/07/16 14:01:52;;;;;;;5.82;1.05;;;25.90;46.30;;;;;;9179213;19;20011;-68
2022/07/16 14:04:57;;;;;;;7.88;1.00;;;26.00;46.30;;;;;;9180479;19;20019;-68
2022/07/16 14:08:06;;;;;;;4.50;1.52;;;26.00;46.20;;;;;;9186703;19;20026;-68
2022/07/16 14:11:12;;;;;;;6.78;1.10;;;26.00;46.00;;;;;;9184228;19;20022;-68
2022/07/16 14:14:17;;;;;;;4.32;0.88;;;26.10;46.10;;;;;;9185314;19;20019;-68
2022/07/16 14:17:22;;;;;;;5.05;1.00;;;26.10;46.10;;;;;;9186649;19;20467;-67
2022/07/16 14:20:28;;;;;;;6.88;1.00;;;26.10;46.50;;;;;;9185425;19;20022;-67
2022/07/16 14:23:35;;;;;;;6.32;1.25;;;26.10;45.90;;;;;;9186007;19;20376;-68
2022/07/16 14:26:43;;;;;;;19.48;2.65;;;26.00;45.80;;;;;;9186080;19;20048;-69
2022/07/16 14:29:48;;;;;;;4.70;0.90;;;26.00;45.90;;;;;;9182703;19;20022;-68
2022/07/16 14:32:53;;;;;;;5.38;0.90;;;25.90;45.90;;;;;;9185680;19;20014;-68
2022/07/16 14:35:58;;;;;;;17.02;1.85;;;25.90;46.10;;;;;;9183635;19;20021;-71
2022/07/16 14:39:06;;;;;;;5.60;1.13;;;25.80;46.00;;;;;;9184069;19;20510;-68
2022/07/16 14:42:11;;;;;;;3.60;1.02;;;25.80;46.00;;;;;;9184320;19;20014;-68
2022/07/16 14:45:19;;;;;;;5.95;1.58;;;25.70;46.10;;;;;;9182962;19;20026;-68
2022/07/16 14:48:23;;;;;;;3.95;1.02;;;25.70;46.20;;;;;;9185211;19;20010;-69
2022/07/16 14:51:28;;;;;;;6.78;0.98;;;25.80;46.20;;;;;;9182611;19;20492;-69
2022/07/16 14:54:36;;;;;;;3.47;1.23;;;25.80;46.20;;;;;;9185310;19;20027;-69
2022/07/16 14:57:43;;;;;;;2.35;0.88;;;25.80;46.20;;;;;;9184286;19;20036;-68
2022/07/16 15:00:48;;;;;;;5.05;1.10;;;25.80;46.20;;;;;;9184388;19;20018;-68
2022/07/16 15:03:53;;;;;;;4.50;1.10;;;25.90;46.80;;;;;;9178028;19;20835;-67
2022/07/16 15:06:58;;;;;;;8.48;1.30;;;25.90;46.10;;;;;;9183717;19;20455;-68
2022/07/16 15:10:06;;;;;;;7.18;1.08;;;25.90;46.00;;;;;;9182271;19;20019;-68
2022/07/16 15:13:19;;;;;;;5.30;1.15;;;25.80;45.80;;;;;;9182089;19;20026;-68
2022/07/16 15:16:26;;;;;;;7.35;1.00;;;25.80;45.80;;;;;;9181960;19;20018;-67
2022/07/16 15:19:32;;;;;;;7.47;1.20;;;25.70;45.70;;;;;;9182133;19;20643;-68
2022/07/16 15:22:38;;;;;;;6.88;1.10;;;25.60;45.70;;;;;;9180292;19;20081;-67
2022/07/16 15:25:45;;;;;;;4.68;1.58;;;25.50;45.70;;;;;;9181084;19;20029;-67
2022/07/16 15:28:50;;;;;;;3.85;0.98;;;25.40;45.60;;;;;;9180674;19;20029;-70
2022/07/16 15:31:55;;;;;;;3.05;0.75;;;25.30;45.70;;;;;;9178390;19;20029;-67
2022/07/16 15:35:00;;;;;;;5.13;1.10;;;25.20;45.70;;;;;;9182587;19;20018;-67
2022/07/16 15:38:05;;;;;;;7.35;1.23;;;25.10;45.70;;;;;;9184116;19;20026;-68
2022/07/16 15:41:14;;;;;;;5.80;1.20;;;25.00;45.70;;;;;;9183334;19;20014;-68
2022/07/16 15:44:19;;;;;;;5.22;1.02;;;24.90;45.70;;;;;;9181108;19;20745;-67
2022/07/16 15:47:24;;;;;;;5.22;1.13;;;24.80;45.80;;;;;;9181080;19;20010;-67
2022/07/16 15:50:29;;;;;;;16.02;6.70;;;24.80;45.90;;;;;;9180301;19;20133;-68
2022/07/16 15:53:35;;;;;;;5.47;2.90;;;24.70;45.90;;;;;;9181464;19;20046;-68
2022/07/16 15:56:42;;;;;;;3.85;1.10;;;24.70;46.00;;;;;;9182369;19;20034;-68
2022/07/16 15:59:48;;;;;;;4.88;1.20;;;24.60;45.90;;;;;;9180877;19;20017;-69
2022/07/16 16:02:54;;;;;;;4.68;1.17;;;24.60;46.00;;;;;;9179772;19;20456;-68
2022/07/16 16:05:59;;;;;;;6.18;1.38;;;24.60;45.90;;;;;;9174396;19;20018;-68
2022/07/16 16:09:07;;;;;;;3.35;1.00;;;24.50;45.80;;;;;;9180437;19;20463;-67
2022/07/16 16:12:14;;;;;;;6.63;1.40;;;24.50;45.90;;;;;;9177445;19;20471;-68
2022/07/16 16:15:20;;;;;;;9.57;1.40;;;24.50;45.80;;;;;;9179997;19;20006;-68
2022/07/16 16:18:27;;;;;;;2.67;0.90;;;24.50;45.90;;;;;;9180596;19;20022;-68
2022/07/16 16:21:32;;;;;;;3.28;0.98;;;24.50;45.70;;;;;;9180632;19;20435;-67
2022/07/16 16:24:37;;;;;;;6.15;1.27;;;24.50;45.50;;;;;;9177928;19;20014;-68